Time;durP1;ratioP1;P1;durP2;ratioP2;P2;SDS_P1;SDS_P2;PMS_P1;PMS_P2;Temp;Humidity;BMP_temperature;BMP_pressure;BME280_temperature;BME280_humidity;BME280_pressure;Samples;Min_cycle;Max_cycle;Signal;HPM_P1;HPM_P2
2023/12/15 00:00:27;;;;;;;16.70;9.50;;;7.50;99.90;;;;;;5036459;28;20049;-63
2023/12/15 00:02:54;;;;;;;14.23;9.52;;;7.50;99.90;;;;;;5036650;28;20426;-63
2023/12/15 00:05:21;;;;;;;14.52;9.57;;;7.50;99.90;;;;;;5036424;28;20069;-63
2023/12/15 00:07:48;;;;;;;16.08;8.88;;;7.50;99.90;;;;;;5036683;28;20041;-63
2023/12/15 00:10:14;;;;;;;15.43;9.43;;;7.60;99.90;;;;;;5035820;28;20033;-63
2023/12/15 00:12:41;;;;;;;14.40;9.15;;;7.60;99.90;;;;;;5035753;28;20091;-63
2023/12/15 00:15:08;;;;;;;15.45;9.32;;;7.60;99.90;;;;;;5035772;28;20037;-62
2023/12/15 00:17:35;;;;;;;13.18;8.30;;;7.60;99.90;;;;;;5038402;28;20041;-63
2023/12/15 00:20:03;;;;;;;16.33;8.77;;;7.60;99.90;;;;;;5044989;28;20087;-63
2023/12/15 00:22:30;;;;;;;14.88;8.60;;;7.60;99.90;;;;;;5044542;28;20060;-63
2023/12/15 00:24:57;;;;;;;17.05;8.38;;;7.60;99.90;;;;;;5046367;28;20041;-63
2023/12/15 00:27:24;;;;;;;14.68;8.50;;;7.60;99.90;;;;;;5044499;28;20379;-62
2023/12/15 00:29:51;;;;;;;13.82;8.57;;;7.60;99.90;;;;;;5045655;28;20029;-62
2023/12/15 00:32:18;;;;;;;15.30;8.10;;;7.70;99.90;;;;;;5046063;28;20044;-63
2023/12/15 00:34:44;;;;;;;16.75;8.63;;;7.70;99.90;;;;;;5043919;28;20095;-63
2023/12/15 00:37:11;;;;;;;18.50;8.40;;;7.70;99.90;;;;;;5045443;28;20033;-63
2023/12/15 00:39:38;;;;;;;18.80;8.63;;;7.70;99.90;;;;;;5044739;28;20382;-62
2023/12/15 00:42:05;;;;;;;15.30;8.38;;;7.70;99.90;;;;;;5042860;28;20045;-63
2023/12/15 00:44:34;;;;;;;21.27;8.52;;;7.70;99.90;;;;;;5045298;28;20382;-62
2023/12/15 00:47:01;;;;;;;15.40;8.38;;;7.70;99.90;;;;;;5045936;28;20116;-62
2023/12/15 00:49:28;;;;;;;14.20;7.63;;;7.70;99.90;;;;;;5044295;28;20045;-62
2023/12/15 00:51:55;;;;;;;15.20;8.55;;;7.70;99.90;;;;;;5044847;28;20029;-63
2023/12/15 00:54:22;;;;;;;14.77;7.75;;;7.70;99.90;;;;;;5046028;28;20037;-62
2023/12/15 00:56:49;;;;;;;12.20;7.57;;;7.70;99.90;;;;;;5044421;28;20116;-64
2023/12/15 00:59:16;;;;;;;17.33;8.05;;;7.70;99.90;;;;;;5043800;28;20514;-63
2023/12/15 01:01:42;;;;;;;16.60;8.82;;;7.70;99.90;;;;;;5043767;28;20042;-63
2023/12/15 01:04:09;;;;;;;15.50;8.25;;;7.70;99.90;;;;;;5045291;28;20063;-63
2023/12/15 01:06:36;;;;;;;15.77;8.20;;;7.70;99.90;;;;;;5045141;28;20116;-63
2023/12/15 01:09:03;;;;;;;16.25;8.02;;;7.70;99.90;;;;;;5043509;28;20030;-63
2023/12/15 01:11:30;;;;;;;16.80;7.75;;;7.70;99.90;;;;;;5043923;28;20471;-63
2023/12/15 01:13:57;;;;;;;16.40;7.65;;;7.70;99.90;;;;;;5045341;28;20529;-63
2023/12/15 01:16:24;;;;;;;13.77;7.55;;;7.70;99.90;;;;;;5043056;28;20439;-63
2023/12/15 01:18:50;;;;;;;16.92;8.07;;;7.70;99.90;;;;;;5049941;28;20061;-63
2023/12/15 01:21:17;;;;;;;15.40;7.30;;;7.60;99.90;;;;;;5054943;28;20544;-63
2023/12/15 01:23:44;;;;;;;18.05;7.57;;;7.60;99.90;;;;;;5055013;28;20049;-63
2023/12/15 01:26:11;;;;;;;14.88;6.90;;;7.70;99.90;;;;;;5054945;28;20087;-63
2023/12/15 01:28:38;;;;;;;17.05;7.82;;;7.60;99.90;;;;;;5054955;28;20041;-63
2023/12/15 01:31:04;;;;;;;20.08;8.10;;;7.70;99.90;;;;;;5054605;28;20049;-63
2023/12/15 01:33:32;;;;;;;13.88;6.85;;;7.70;99.90;;;;;;5054831;28;20095;-63
2023/12/15 01:35:59;;;;;;;14.00;7.50;;;7.70;99.90;;;;;;5054389;28;20060;-63
2023/12/15 01:38:26;;;;;;;18.33;7.63;;;7.70;99.90;;;;;;5054302;28;20044;-63
2023/12/15 01:40:53;;;;;;;20.10;7.85;;;7.70;99.90;;;;;;5054529;28;20029;-63
2023/12/15 01:43:20;;;;;;;17.88;7.05;;;7.70;99.90;;;;;;5054114;28;20478;-63
2023/12/15 01:45:46;;;;;;;15.73;7.00;;;7.70;99.90;;;;;;5054781;28;20047;-63
2023/12/15 01:48:18;;;;;;;16.13;7.13;;;7.70;99.90;;;;;;5054401;28;20037;-63
2023/12/15 01:50:45;;;;;;;15.90;6.78;;;7.70;99.90;;;;;;5053129;28;20107;-63
2023/12/15 01:53:12;;;;;;;15.23;6.93;;;7.70;99.90;;;;;;5054566;28;20053;-63
2023/12/15 01:55:38;;;;;;;20.55;6.93;;;7.70;99.90;;;;;;5054681;28;20067;-63
2023/12/15 01:58:05;;;;;;;17.15;6.95;;;7.70;99.90;;;;;;5054587;28;20055;-63
2023/12/15 02:00:32;;;;;;;12.50;6.50;;;7.60;99.90;;;;;;5054146;28;20126;-62
2023/12/15 02:02:59;;;;;;;16.63;6.57;;;7.70;99.90;;;;;;5053941;28;20128;-62
2023/12/15 02:05:26;;;;;;;20.30;6.47;;;7.60;99.90;;;;;;5053720;28;20041;-62
2023/12/15 02:07:53;;;;;;;19.10;6.50;;;7.60;99.90;;;;;;5053826;28;20103;-62
2023/12/15 02:10:19;;;;;;;17.92;6.38;;;7.60;99.90;;;;;;5053934;28;20037;-63
2023/12/15 02:12:46;;;;;;;23.05;6.28;;;7.70;99.90;;;;;;5054062;28;20033;-64
2023/12/15 02:15:13;;;;;;;16.90;5.88;;;7.60;99.90;;;;;;5053885;28;20098;-64
2023/12/15 02:17:40;;;;;;;21.98;6.22;;;7.60;99.90;;;;;;5053862;28;20051;-64
2023/12/15 02:20:07;;;;;;;17.13;5.70;;;7.60;99.90;;;;;;5053900;28;20131;-64
2023/12/15 02:22:34;;;;;;;19.75;6.68;;;7.60;99.90;;;;;;5052753;28;20398;-64
2023/12/15 02:25:01;;;;;;;21.63;6.55;;;7.60;99.90;;;;;;5053634;28;20095;-64
2023/12/15 02:27:27;;;;;;;19.55;5.60;;;7.60;99.90;;;;;;5053906;28;20147;-64
2023/12/15 02:29:54;;;;;;;20.58;6.68;;;7.60;99.90;;;;;;5053558;28;20045;-64
2023/12/15 02:32:21;;;;;;;22.30;6.43;;;7.60;99.90;;;;;;5053621;28;20033;-64
2023/12/15 02:34:48;;;;;;;19.85;5.75;;;7.60;99.90;;;;;;5053649;28;20429;-64
2023/12/15 02:37:15;;;;;;;21.23;5.90;;;7.60;99.90;;;;;;5052783;28;20419;-64
2023/12/15 02:39:41;;;;;;;23.42;7.07;;;7.60;99.90;;;;;;5052285;28;20107;-64
2023/12/15 02:42:08;;;;;;;20.27;5.82;;;7.60;99.90;;;;;;5053634;28;20049;-64
2023/12/15 02:44:35;;;;;;;16.98;6.70;;;7.60;99.90;;;;;;5051775;28;20041;-64
2023/12/15 02:47:02;;;;;;;24.67;5.78;;;7.60;99.90;;;;;;5053705;28;20063;-64
2023/12/15 02:49:28;;;;;;;23.98;6.53;;;7.60;99.90;;;;;;5053244;28;20197;-64
2023/12/15 02:51:55;;;;;;;20.58;5.70;;;7.50;99.90;;;;;;5053650;28;20049;-64
2023/12/15 02:54:22;;;;;;;15.85;4.95;;;7.50;99.90;;;;;;5053726;28;20063;-64
2023/12/15 02:56:49;;;;;;;20.00;4.65;;;7.50;99.90;;;;;;5053610;28;20359;-64
2023/12/15 02:59:15;;;;;;;23.30;6.43;;;7.50;99.90;;;;;;5053011;28;20122;-64
2023/12/15 03:01:42;;;;;;;15.85;5.20;;;7.40;99.90;;;;;;5053122;28;20380;-64
2023/12/15 03:04:09;;;;;;;16.30;4.78;;;7.40;99.90;;;;;;5053020;28;20068;-64
2023/12/15 03:06:36;;;;;;;20.20;5.00;;;7.40;99.90;;;;;;5053147;28;20052;-64
2023/12/15 03:09:03;;;;;;;17.75;5.57;;;7.40;99.90;;;;;;5052858;28;20087;-64
2023/12/15 03:11:30;;;;;;;20.05;5.53;;;7.30;99.90;;;;;;5053311;28;20067;-64
2023/12/15 03:13:57;;;;;;;14.80;5.05;;;7.30;99.90;;;;;;5052954;28;20094;-64
2023/12/15 03:16:24;;;;;;;16.60;5.20;;;7.30;99.90;;;;;;5053073;28;20171;-64
2023/12/15 03:18:51;;;;;;;20.38;5.70;;;7.30;99.90;;;;;;5053352;28;20073;-64
2023/12/15 03:21:17;;;;;;;19.92;5.68;;;7.30;99.90;;;;;;5053029;28;20427;-64
2023/12/15 03:23:44;;;;;;;20.70;5.50;;;7.30;99.90;;;;;;5052856;28;20045;-64
2023/12/15 03:26:11;;;;;;;21.33;6.50;;;7.30;99.90;;;;;;5053140;28;20056;-64
2023/12/15 03:28:38;;;;;;;18.67;6.10;;;7.30;99.90;;;;;;5053241;28;20041;-64
2023/12/15 03:31:04;;;;;;;19.25;5.45;;;7.20;99.90;;;;;;5052860;28;20563;-64
2023/12/15 03:33:31;;;;;;;18.58;5.00;;;7.30;99.90;;;;;;5053271;28;20086;-64
2023/12/15 03:35:58;;;;;;;18.88;5.28;;;7.20;99.90;;;;;;5052777;28;20124;-64
2023/12/15 03:38:25;;;;;;;19.33;5.30;;;7.20;99.90;;;;;;5053032;28;20056;-64
2023/12/15 03:40:52;;;;;;;19.13;5.07;;;7.20;99.90;;;;;;5053043;28;20056;-64
2023/12/15 03:43:18;;;;;;;20.15;5.28;;;7.20;99.90;;;;;;5052933;28;20040;-63
2023/12/15 03:45:46;;;;;;;20.52;5.88;;;7.20;99.90;;;;;;5052750;28;20044;-64
2023/12/15 03:48:12;;;;;;;17.75;5.07;;;7.20;99.90;;;;;;5053131;28;20045;-64
2023/12/15 03:50:39;;;;;;;18.38;4.78;;;7.10;99.90;;;;;;5053205;28;20124;-64
2023/12/15 03:53:06;;;;;;;16.33;4.60;;;7.10;99.90;;;;;;5052678;28;20119;-64
2023/12/15 03:55:33;;;;;;;17.02;5.32;;;7.10;99.90;;;;;;5053278;28;20045;-64
2023/12/15 03:58:00;;;;;;;17.10;5.88;;;7.10;99.90;;;;;;5056883;28;20068;-64
2023/12/15 04:00:26;;;;;;;22.33;6.78;;;7.10;99.90;;;;;;5054987;28;20072;-63
2023/12/15 04:02:53;;;;;;;20.58;5.28;;;7.10;99.90;;;;;;5056104;28;20045;-64
2023/12/15 04:05:20;;;;;;;21.25;4.95;;;7.10;99.90;;;;;;5056267;28;20068;-64
2023/12/15 04:07:47;;;;;;;18.75;5.00;;;7.10;99.90;;;;;;5056518;28;20041;-64
2023/12/15 04:10:14;;;;;;;19.00;4.82;;;7.10;99.90;;;;;;5056425;28;20131;-64
2023/12/15 04:12:40;;;;;;;24.65;5.78;;;7.10;99.90;;;;;;5056112;28;20041;-64
2023/12/15 04:15:08;;;;;;;20.70;5.35;;;7.10;99.90;;;;;;5055996;28;20047;-64
2023/12/15 04:17:35;;;;;;;21.67;5.75;;;7.10;99.90;;;;;;5055994;28;20482;-64
2023/12/15 04:20:03;;;;;;;23.65;5.80;;;7.10;99.90;;;;;;5055234;28;20098;-64
2023/12/15 04:22:30;;;;;;;20.48;5.05;;;7.10;99.90;;;;;;5056360;28;20037;-64
2023/12/15 04:24:57;;;;;;;15.35;4.90;;;7.10;99.90;;;;;;5054507;28;20164;-65
2023/12/15 04:27:24;;;;;;;20.95;5.43;;;7.10;99.90;;;;;;5056084;28;20041;-64
2023/12/15 04:29:50;;;;;;;21.83;5.15;;;7.00;99.90;;;;;;5056205;28;20363;-65
2023/12/15 04:32:17;;;;;;;19.95;4.63;;;7.00;99.90;;;;;;5055410;28;20047;-64
2023/12/15 04:34:44;;;;;;;21.77;5.40;;;7.10;99.90;;;;;;5055312;28;20041;-64
2023/12/15 04:37:11;;;;;;;18.00;4.75;;;7.00;99.90;;;;;;5055903;28;20045;-64
2023/12/15 04:39:37;;;;;;;27.27;5.25;;;7.00;99.90;;;;;;5055447;28;20128;-64
2023/12/15 04:42:04;;;;;;;21.38;5.05;;;7.00;99.90;;;;;;5055664;28;20049;-64
2023/12/15 04:44:31;;;;;;;19.45;5.32;;;7.00;99.90;;;;;;5054435;28;20037;-64
2023/12/15 04:46:58;;;;;;;23.33;4.53;;;7.00;99.90;;;;;;5055650;28;20132;-64
2023/12/15 04:49:25;;;;;;;18.50;4.72;;;7.00;99.90;;;;;;5053883;28;20045;-65
2023/12/15 04:51:52;;;;;;;21.25;5.30;;;7.00;99.90;;;;;;5055490;28;20037;-64
2023/12/15 04:54:19;;;;;;;17.40;5.20;;;7.00;99.90;;;;;;5055564;28;20037;-65
2023/12/15 04:56:46;;;;;;;21.15;5.05;;;7.00;99.90;;;;;;5055337;28;20095;-64
2023/12/15 04:59:13;;;;;;;22.70;4.50;;;7.00;99.90;;;;;;5055163;28;20048;-65
2023/12/15 05:01:40;;;;;;;13.82;4.20;;;7.00;99.90;;;;;;5054122;28;20465;-65
2023/12/15 05:04:06;;;;;;;19.83;4.72;;;7.00;99.90;;;;;;5055140;28;20119;-64
2023/12/15 05:06:34;;;;;;;18.42;4.32;;;7.00;99.90;;;;;;5053479;28;20048;-64
2023/12/15 05:09:04;;;;;;;17.83;4.85;;;7.10;99.90;;;;;;5055123;28;20040;-64
2023/12/15 05:11:31;;;;;;;22.02;4.82;;;7.10;99.90;;;;;;5055411;28;20036;-65
2023/12/15 05:13:58;;;;;;;20.35;4.82;;;7.10;99.90;;;;;;5055346;28;20474;-64
2023/12/15 05:16:25;;;;;;;17.52;4.75;;;7.10;99.90;;;;;;5054866;28;20379;-64
2023/12/15 05:18:52;;;;;;;23.75;5.32;;;7.10;99.90;;;;;;5055002;28;20045;-65
2023/12/15 05:21:19;;;;;;;20.40;4.70;;;7.10;99.90;;;;;;5055302;28;20049;-65
2023/12/15 05:23:46;;;;;;;18.63;5.10;;;7.00;99.90;;;;;;5054945;28;20041;-65
2023/12/15 05:26:13;;;;;;;15.82;5.03;;;7.00;99.90;;;;;;5055133;28;20044;-65
2023/12/15 05:28:40;;;;;;;20.23;5.03;;;7.00;99.90;;;;;;5055003;28;20047;-65
2023/12/15 05:31:07;;;;;;;18.23;4.95;;;7.00;99.90;;;;;;5054605;28;20470;-64
2023/12/15 05:33:33;;;;;;;18.27;4.40;;;7.00;99.90;;;;;;5054784;28;20482;-65
2023/12/15 05:36:00;;;;;;;15.40;4.32;;;7.00;99.90;;;;;;5054547;28;20099;-64
2023/12/15 05:38:27;;;;;;;21.40;5.38;;;7.00;99.90;;;;;;5054896;28;20049;-65
2023/12/15 05:40:54;;;;;;;19.58;4.35;;;7.00;99.90;;;;;;5054433;28;20449;-64
2023/12/15 05:43:21;;;;;;;21.00;5.65;;;7.00;99.90;;;;;;5053707;28;20128;-65
2023/12/15 05:45:48;;;;;;;17.05;4.05;;;7.00;99.90;;;;;;5054864;28;20517;-64
2023/12/15 05:48:14;;;;;;;14.93;4.32;;;7.00;99.90;;;;;;5054772;28;20037;-65
2023/12/15 05:50:41;;;;;;;19.85;4.18;;;7.00;99.90;;;;;;5054505;28;20083;-64
2023/12/15 05:53:08;;;;;;;17.58;4.90;;;7.00;99.90;;;;;;5054034;28;20086;-64
2023/12/15 05:55:35;;;;;;;17.63;4.40;;;6.90;99.90;;;;;;5054621;28;20044;-64
2023/12/15 05:58:02;;;;;;;15.77;3.70;;;6.90;99.90;;;;;;5054478;28;20052;-64
2023/12/15 06:00:31;;;;;;;21.05;3.70;;;6.90;99.90;;;;;;5054114;28;20075;-65
2023/12/15 06:02:58;;;;;;;22.73;4.88;;;6.90;99.90;;;;;;5053974;28;20398;-64
2023/12/15 06:05:26;;;;;;;16.63;4.40;;;6.90;99.90;;;;;;5054432;28;20044;-65
2023/12/15 06:07:53;;;;;;;17.17;3.88;;;6.90;99.90;;;;;;5054367;28;20045;-65
2023/12/15 06:10:20;;;;;;;18.70;4.85;;;6.90;99.90;;;;;;5054288;28;20129;-65
2023/12/15 06:12:47;;;;;;;15.93;4.10;;;6.90;99.90;;;;;;5053221;28;20047;-64
2023/12/15 06:15:13;;;;;;;17.98;3.80;;;6.90;99.90;;;;;;5054136;28;20108;-65
2023/12/15 06:17:40;;;;;;;18.98;4.53;;;6.90;99.90;;;;;;5054326;28;20055;-65
2023/12/15 06:20:08;;;;;;;13.88;3.38;;;6.90;99.90;;;;;;5053864;28;20052;-65
2023/12/15 06:22:35;;;;;;;17.27;4.03;;;6.90;99.90;;;;;;5054155;28;20047;-65
2023/12/15 06:25:02;;;;;;;16.52;4.07;;;6.80;99.90;;;;;;5054164;28;20063;-64
2023/12/15 06:27:29;;;;;;;20.05;4.60;;;6.80;99.90;;;;;;5053811;28;20462;-64
2023/12/15 06:29:55;;;;;;;14.55;4.03;;;6.80;99.90;;;;;;5052248;28;20041;-65
2023/12/15 06:32:22;;;;;;;15.32;4.45;;;6.80;99.90;;;;;;5053730;28;20037;-65
2023/12/15 06:34:49;;;;;;;17.42;4.35;;;6.70;99.90;;;;;;5053828;28;20469;-65
2023/12/15 06:37:16;;;;;;;21.48;4.82;;;6.70;99.90;;;;;;5053744;28;20140;-64
2023/12/15 06:39:45;;;;;;;16.58;4.13;;;6.70;99.90;;;;;;5053708;28;20053;-65
2023/12/15 06:42:12;;;;;;;14.68;3.95;;;6.70;99.90;;;;;;5053649;28;20029;-64
2023/12/15 06:44:39;;;;;;;13.27;3.90;;;6.60;99.90;;;;;;5053662;28;20044;-64
2023/12/15 06:47:06;;;;;;;17.55;4.15;;;6.60;99.90;;;;;;5053618;28;20033;-64
2023/12/15 06:49:33;;;;;;;12.30;3.80;;;6.50;99.90;;;;;;5052959;28;20045;-64
2023/12/15 06:52:00;;;;;;;14.02;4.15;;;6.50;99.90;;;;;;5053409;28;20033;-64
2023/12/15 06:54:27;;;;;;;17.10;3.70;;;6.40;99.90;;;;;;5053406;28;20056;-64
2023/12/15 06:56:54;;;;;;;16.80;4.18;;;6.40;99.90;;;;;;5053377;28;20033;-65
2023/12/15 06:59:21;;;;;;;18.13;3.95;;;6.40;99.90;;;;;;5053141;28;20467;-64
2023/12/15 07:01:48;;;;;;;17.40;4.22;;;6.30;99.90;;;;;;5053525;28;20131;-64
2023/12/15 07:04:14;;;;;;;14.75;3.70;;;6.20;99.90;;;;;;5053516;28;20049;-65
2023/12/15 07:06:41;;;;;;;12.60;3.47;;;6.20;99.90;;;;;;5053344;28;20441;-65
2023/12/15 07:09:11;;;;;;;14.63;4.22;;;6.10;99.90;;;;;;5053103;28;20045;-65
2023/12/15 07:11:39;;;;;;;16.13;4.25;;;6.10;99.90;;;;;;5053119;28;20056;-65
2023/12/15 07:14:06;;;;;;;20.30;5.05;;;6.00;99.90;;;;;;5053322;28;20036;-64
2023/12/15 07:16:33;;;;;;;16.92;5.25;;;6.00;99.90;;;;;;5053298;28;20052;-64
2023/12/15 07:19:00;;;;;;;21.05;5.20;;;5.90;99.90;;;;;;5053044;28;20045;-64
2023/12/15 07:21:27;;;;;;;18.05;5.22;;;5.90;99.90;;;;;;5053149;28;20136;-64
2023/12/15 07:23:55;;;;;;;14.90;4.43;;;5.80;99.90;;;;;;5052833;28;20045;-65
2023/12/15 07:26:21;;;;;;;15.48;3.72;;;5.70;99.90;;;;;;5053370;28;20538;-64
2023/12/15 07:28:48;;;;;;;15.70;5.10;;;5.60;99.90;;;;;;5052875;28;20448;-65
2023/12/15 07:31:15;;;;;;;18.55;5.15;;;5.60;99.90;;;;;;5056252;28;20474;-64
2023/12/15 07:33:42;;;;;;;20.35;4.47;;;5.50;99.90;;;;;;5057176;28;20051;-64
2023/12/15 07:36:09;;;;;;;14.82;4.65;;;5.40;99.90;;;;;;5056567;28;20053;-64
2023/12/15 07:38:36;;;;;;;14.57;5.07;;;5.30;99.90;;;;;;5056671;28;20048;-64
2023/12/15 07:41:05;;;;;;;15.05;5.88;;;5.30;99.90;;;;;;5057101;28;20437;-65
2023/12/15 07:43:32;;;;;;;20.08;5.55;;;5.20;99.90;;;;;;5056881;28;20048;-64
2023/12/15 07:45:59;;;;;;;20.95;5.00;;;5.20;99.90;;;;;;5057039;28;20063;-65
2023/12/15 07:48:26;;;;;;;15.35;5.28;;;5.20;99.90;;;;;;5056720;28;20111;-64
2023/12/15 07:50:54;;;;;;;20.33;5.95;;;5.10;99.90;;;;;;5056856;28;20389;-64
2023/12/15 07:53:21;;;;;;;19.88;7.15;;;5.10;99.90;;;;;;5056670;28;20048;-64
2023/12/15 07:55:48;;;;;;;22.42;6.85;;;5.00;99.90;;;;;;5056540;28;20060;-64
2023/12/15 07:58:15;;;;;;;18.13;6.28;;;5.00;99.90;;;;;;5056364;28;20065;-65
2023/12/15 08:00:42;;;;;;;21.17;6.53;;;5.00;99.90;;;;;;5056583;28;20543;-64
2023/12/15 08:03:09;;;;;;;21.42;6.10;;;5.10;99.90;;;;;;5054903;28;20048;-64
2023/12/15 08:05:36;;;;;;;18.92;6.30;;;5.10;99.90;;;;;;5042985;28;20478;-64
2023/12/15 08:08:04;;;;;;;18.63;6.78;;;5.20;99.90;;;;;;5044761;28;20044;-65
2023/12/15 08:10:34;;;;;;;18.30;6.03;;;5.20;99.90;;;;;;5044328;28;20052;-64
2023/12/15 08:13:01;;;;;;;18.30;7.45;;;5.30;99.90;;;;;;5036478;28;20429;-64
2023/12/15 08:15:28;;;;;;;21.73;4.78;;;5.30;99.90;;;;;;5036484;28;20479;-64
2023/12/15 08:17:54;;;;;;;16.15;4.20;;;5.40;99.90;;;;;;5034676;28;20048;-64
2023/12/15 08:20:22;;;;;;;21.98;4.18;;;5.50;99.90;;;;;;5035804;28;20041;-64
2023/12/15 08:22:48;;;;;;;12.30;3.63;;;5.50;99.90;;;;;;5036229;28;20072;-63
2023/12/15 08:25:16;;;;;;;16.55;4.05;;;5.60;99.90;;;;;;5036037;28;20431;-64
2023/12/15 08:27:43;;;;;;;24.60;5.47;;;5.70;99.90;;;;;;5036162;28;20045;-64
2023/12/15 08:30:09;;;;;;;15.35;3.92;;;5.80;99.90;;;;;;5035639;28;20055;-64
2023/12/15 08:32:36;;;;;;;14.20;3.72;;;5.80;99.90;;;;;;5035439;28;20065;-63
2023/12/15 08:35:03;;;;;;;15.27;4.10;;;5.90;99.90;;;;;;5035217;28;20049;-63
2023/12/15 08:37:30;;;;;;;20.67;5.80;;;6.00;99.90;;;;;;5034173;28;20137;-65
2023/12/15 08:39:57;;;;;;;18.90;5.43;;;6.10;99.90;;;;;;5035948;28;20038;-65
2023/12/15 08:42:24;;;;;;;16.92;4.30;;;6.10;99.90;;;;;;5034846;28;20038;-64
2023/12/15 08:44:51;;;;;;;14.52;4.00;;;6.20;99.90;;;;;;5035836;28;20540;-65
2023/12/15 08:47:18;;;;;;;15.98;4.10;;;6.20;99.90;;;;;;5035560;28;20042;-65
2023/12/15 08:49:44;;;;;;;16.63;4.00;;;6.30;99.90;;;;;;5035559;28;20045;-65
2023/12/15 08:52:11;;;;;;;14.88;4.10;;;6.40;99.90;;;;;;5035951;28;20041;-65
2023/12/15 08:54:38;;;;;;;12.98;3.83;;;6.40;99.90;;;;;;5035745;28;20483;-65
2023/12/15 08:57:05;;;;;;;18.75;4.20;;;6.40;99.90;;;;;;5035857;28;20057;-65
2023/12/15 08:59:32;;;;;;;17.42;3.45;;;6.50;99.90;;;;;;5034455;28;20068;-65
2023/12/15 09:01:59;;;;;;;13.32;3.35;;;6.50;99.90;;;;;;5035640;28;20049;-65
2023/12/15 09:04:25;;;;;;;15.05;3.88;;;6.60;99.90;;;;;;5035058;28;20044;-65
2023/12/15 09:06:52;;;;;;;17.88;3.78;;;6.60;99.90;;;;;;5035284;28;20502;-64
2023/12/15 09:09:21;;;;;;;15.38;3.40;;;6.70;99.90;;;;;;5033732;28;20049;-64
2023/12/15 09:11:49;;;;;;;15.20;3.72;;;6.80;99.90;;;;;;5034890;28;20084;-64
2023/12/15 09:14:16;;;;;;;17.20;3.70;;;6.80;99.90;;;;;;5034966;28;20125;-64
2023/12/15 09:16:43;;;;;;;14.98;3.67;;;6.90;99.90;;;;;;5035016;28;20052;-65
2023/12/15 09:19:10;;;;;;;12.80;3.22;;;6.90;99.90;;;;;;5035737;28;20048;-65
2023/12/15 09:21:36;;;;;;;15.43;3.40;;;7.00;99.90;;;;;;5050169;28;20079;-65
2023/12/15 09:24:03;;;;;;;13.05;3.25;;;7.00;99.90;;;;;;5054159;28;20106;-65
2023/12/15 09:26:32;;;;;;;14.00;3.60;;;7.10;99.90;;;;;;5046427;28;20119;-64
2023/12/15 09:28:59;;;;;;;13.30;3.55;;;7.10;99.90;;;;;;5053721;28;20079;-64
2023/12/15 09:31:26;;;;;;;20.10;4.93;;;7.10;99.90;;;;;;5054023;28;20072;-65
2023/12/15 09:33:53;;;;;;;13.82;4.00;;;7.20;99.90;;;;;;5053771;28;20103;-64
2023/12/15 09:36:20;;;;;;;12.32;3.85;;;7.20;99.90;;;;;;5072002;28;20041;-65
2023/12/15 09:38:47;;;;;;;16.52;3.83;;;7.20;99.90;;;;;;5073552;28;20059;-65
2023/12/15 09:41:14;;;;;;;18.35;4.18;;;7.30;99.90;;;;;;5056790;28;20052;-65
2023/12/15 09:43:41;;;;;;;16.25;3.67;;;7.30;99.90;;;;;;5053842;28;20124;-65
2023/12/15 09:46:07;;;;;;;16.58;3.50;;;7.40;99.90;;;;;;5052494;28;20044;-66
2023/12/15 09:48:34;;;;;;;21.35;4.00;;;7.40;99.90;;;;;;5050354;28;20033;-64
2023/12/15 09:51:01;;;;;;;17.10;3.55;;;7.40;99.90;;;;;;5053856;28;20052;-65
2023/12/15 09:53:28;;;;;;;12.40;3.53;;;7.50;99.90;;;;;;5052646;28;20124;-65
2023/12/15 09:55:55;;;;;;;19.67;3.80;;;7.50;99.90;;;;;;5053267;28;20041;-64
2023/12/15 09:58:22;;;;;;;19.00;3.92;;;7.50;99.90;;;;;;5053569;28;20041;-65
2023/12/15 10:00:49;;;;;;;19.95;4.47;;;7.60;99.90;;;;;;5054305;28;20441;-64
2023/12/15 10:03:16;;;;;;;13.98;3.47;;;7.60;99.90;;;;;;5053654;28;20098;-65
2023/12/15 10:05:42;;;;;;;17.88;3.50;;;7.70;99.90;;;;;;5054103;28;20048;-64
2023/12/15 10:08:09;;;;;;;13.98;3.47;;;7.60;99.90;;;;;;5053749;28;20053;-64
2023/12/15 10:10:36;;;;;;;15.70;4.07;;;7.70;99.90;;;;;;5052420;28;20083;-65
2023/12/15 10:13:03;;;;;;;15.38;3.65;;;7.70;99.90;;;;;;5052246;28;20143;-63
2023/12/15 10:15:30;;;;;;;17.20;3.85;;;7.70;99.90;;;;;;5052173;28;20482;-64
2023/12/15 10:17:57;;;;;;;18.10;3.97;;;7.70;99.90;;;;;;5052015;28;20047;-64
2023/12/15 10:20:24;;;;;;;17.55;3.92;;;7.80;99.90;;;;;;5052041;28;20374;-64
2023/12/15 10:22:51;;;;;;;15.98;3.22;;;7.80;99.90;;;;;;5051838;28;20048;-64
2023/12/15 10:25:18;;;;;;;19.98;3.90;;;7.80;99.90;;;;;;5053098;28;20471;-64
2023/12/15 10:27:45;;;;;;;17.23;3.03;;;7.90;99.90;;;;;;5052206;28;20103;-63
2023/12/15 10:30:12;;;;;;;13.63;3.35;;;7.90;99.90;;;;;;5053037;28;20033;-64
2023/12/15 10:32:39;;;;;;;15.13;3.95;;;7.90;99.90;;;;;;5053343;28;20043;-64
2023/12/15 10:35:06;;;;;;;20.23;3.83;;;8.00;99.90;;;;;;5053431;28;20379;-64
2023/12/15 10:37:33;;;;;;;13.75;3.60;;;8.00;99.90;;;;;;5053653;28;20049;-64
2023/12/15 10:40:00;;;;;;;15.82;4.10;;;8.00;99.90;;;;;;5053751;28;20051;-64
2023/12/15 10:42:31;;;;;;;16.17;3.58;;;8.00;99.90;;;;;;5053790;28;20051;-64
2023/12/15 10:44:58;;;;;;;19.50;4.38;;;8.10;99.90;;;;;;5053636;28;20037;-64
2023/12/15 10:47:26;;;;;;;13.73;3.42;;;8.10;99.90;;;;;;5053789;28;20359;-63
2023/12/15 10:49:53;;;;;;;17.30;3.95;;;8.10;99.90;;;;;;5053252;28;20041;-64
2023/12/15 10:52:21;;;;;;;14.95;4.28;;;8.20;99.90;;;;;;5053135;28;20044;-64
2023/12/15 10:54:50;;;;;;;13.60;3.65;;;8.20;99.90;;;;;;5053405;28;20471;-65
2023/12/15 10:57:17;;;;;;;20.73;4.53;;;8.30;99.90;;;;;;5053173;28;20041;-64
2023/12/15 10:59:43;;;;;;;14.23;3.72;;;8.30;99.90;;;;;;5053210;28;20051;-64
2023/12/15 11:02:10;;;;;;;19.27;4.18;;;8.40;99.90;;;;;;5053700;28;20077;-64
2023/12/15 11:04:37;;;;;;;14.60;3.78;;;8.40;99.90;;;;;;5053832;28;20041;-63
2023/12/15 11:07:04;;;;;;;20.98;3.80;;;8.40;99.90;;;;;;5057600;28;20051;-63
2023/12/15 11:09:32;;;;;;;18.88;3.70;;;8.50;99.90;;;;;;5057186;28;20037;-64
2023/12/15 11:12:14;;;;;;;15.57;3.78;;;8.50;99.90;;;;;;5057636;28;20475;-64
2023/12/15 11:14:41;;;;;;;28.00;13.82;;;8.60;99.90;;;;;;5056906;28;20478;-64
2023/12/15 11:17:09;;;;;;;21.55;6.50;;;8.60;99.90;;;;;;5057000;28;20483;-64
2023/12/15 11:19:36;;;;;;;12.93;3.75;;;8.60;99.90;;;;;;5056967;28;20041;-64
2023/12/15 11:22:03;;;;;;;15.10;4.78;;;8.70;99.90;;;;;;5055681;28;20048;-64
2023/12/15 11:24:30;;;;;;;16.02;5.18;;;8.70;99.90;;;;;;5056840;28;20049;-63
2023/12/15 11:26:57;;;;;;;15.93;4.20;;;8.80;99.90;;;;;;5057430;28;20105;-64
2023/12/15 11:29:23;;;;;;;15.55;3.75;;;8.80;99.90;;;;;;5057291;28;20068;-63
2023/12/15 11:31:53;;;;;;;15.63;4.25;;;8.80;99.90;;;;;;5056908;28;20040;-63
2023/12/15 11:34:20;;;;;;;13.13;3.80;;;8.90;99.90;;;;;;5056998;28;20499;-64
2023/12/15 11:36:51;;;;;;;13.85;3.40;;;8.90;99.90;;;;;;5056687;28;20123;-63
2023/12/15 11:39:17;;;;;;;16.20;4.18;;;8.90;99.90;;;;;;5057295;28;20045;-64
2023/12/15 11:41:47;;;;;;;12.65;3.42;;;8.90;99.90;;;;;;5057247;28;20099;-64
2023/12/15 11:44:14;;;;;;;16.05;3.95;;;8.90;99.90;;;;;;5057146;28;20102;-63
2023/12/15 11:46:41;;;;;;;14.32;3.30;;;8.90;99.90;;;;;;5057151;28;20068;-64
2023/12/15 11:49:08;;;;;;;14.07;2.80;;;8.90;99.90;;;;;;5056684;28;20076;-63
2023/12/15 11:51:35;;;;;;;12.10;3.45;;;8.90;99.90;;;;;;5056795;28;20076;-63
2023/12/15 11:54:04;;;;;;;11.60;3.20;;;8.90;99.90;;;;;;5056354;28;20040;-63
2023/12/15 11:56:31;;;;;;;11.80;3.17;;;8.90;99.90;;;;;;5055560;28;20041;-63
2023/12/15 11:58:58;;;;;;;13.88;3.75;;;8.90;99.90;;;;;;5056668;28;20052;-63
2023/12/15 12:01:24;;;;;;;13.05;2.85;;;8.90;99.90;;;;;;5056392;28;20048;-63
2023/12/15 12:03:51;;;;;;;12.90;3.63;;;9.00;99.90;;;;;;5056716;28;20051;-63
2023/12/15 12:06:20;;;;;;;11.63;3.10;;;9.00;99.90;;;;;;5056745;28;20466;-62
2023/12/15 12:08:48;;;;;;;15.05;3.42;;;9.00;99.90;;;;;;5056454;28;20051;-63
2023/12/15 12:11:16;;;;;;;13.50;3.40;;;9.10;99.90;;;;;;5056349;28;20044;-63
2023/12/15 12:13:43;;;;;;;14.27;3.58;;;9.00;99.90;;;;;;5056574;28;20045;-63
2023/12/15 12:16:10;;;;;;;15.35;3.20;;;9.10;99.90;;;;;;5054983;28;20457;-63
2023/12/15 12:18:37;;;;;;;16.48;3.85;;;9.10;99.90;;;;;;5055778;28;20037;-63
2023/12/15 12:21:04;;;;;;;11.20;3.13;;;9.10;99.90;;;;;;5056273;28;20067;-63
2023/12/15 12:23:31;;;;;;;19.42;3.65;;;9.10;99.90;;;;;;5054843;28;20061;-63
2023/12/15 12:26:11;;;;;;;13.15;3.38;;;9.00;99.90;;;;;;5056133;28;20059;-62
2023/12/15 12:28:38;;;;;;;14.60;3.60;;;9.00;99.90;;;;;;5055584;28;20037;-63
2023/12/15 12:31:05;;;;;;;13.13;3.40;;;9.00;99.90;;;;;;5055964;28;20120;-64
2023/12/15 12:33:32;;;;;;;19.10;4.80;;;9.10;99.90;;;;;;5055666;28;20041;-63
2023/12/15 12:35:59;;;;;;;16.20;4.75;;;9.10;99.90;;;;;;5055925;28;20363;-64
2023/12/15 12:38:26;;;;;;;18.48;3.95;;;9.00;99.90;;;;;;5056147;28;20037;-64
2023/12/15 12:40:53;;;;;;;15.20;3.80;;;9.10;99.90;;;;;;5055851;28;20490;-65
2023/12/15 12:43:19;;;;;;;16.40;4.30;;;9.10;99.90;;;;;;5054673;28;20045;-64
2023/12/15 12:45:46;;;;;;;16.13;3.30;;;9.10;99.90;;;;;;5055512;28;20045;-63